sensor_id;sensor_type;location;lat;lon;timestamp;pressure;altitude;pressure_sealevel;temperature;humidity
54850;BME280;47660;51.334;12.396;2023-04-19T00:02:00;101140.06;;;20.41;47.47
54850;BME280;47660;51.334;12.396;2023-04-19T00:04:28;101140.03;;;20.02;47.42
54850;BME280;47660;51.334;12.396;2023-04-19T00:06:54;101132.69;;;20.14;47.31
54850;BME280;47660;51.334;12.396;2023-04-19T00:09:19;101133.41;;;19.65;48.22
54850;BME280;47660;51.334;12.396;2023-04-19T00:11:48;101131.88;;;19.82;47.43
54850;BME280;47660;51.334;12.396;2023-04-19T00:14:13;101137.53;;;19.69;47.21
54850;BME280;47660;51.334;12.396;2023-04-19T00:16:38;101139.66;;;19.04;48.01
54850;BME280;47660;51.334;12.396;2023-04-19T00:19:04;101133.47;;;19.13;47.42
54850;BME280;47660;51.334;12.396;2023-04-19T00:21:32;101134.47;;;18.48;48.71
54850;BME280;47660;51.334;12.396;2023-04-19T00:23:57;101127.13;;;18.50;47.51
54850;BME280;47660;51.334;12.396;2023-04-19T00:26:25;101129.50;;;18.65;47.96
54850;BME280;47660;51.334;12.396;2023-04-19T00:28:50;101128.31;;;19.00;46.97
54850;BME280;47660;51.334;12.396;2023-04-19T00:31:16;101123.97;;;19.40;46.11
54850;BME280;47660;51.334;12.396;2023-04-19T00:33:41;101127.22;;;19.03;46.64
54850;BME280;47660;51.334;12.396;2023-04-19T00:36:09;101128.50;;;19.08;46.71
54850;BME280;47660;51.334;12.396;2023-04-19T00:38:35;101128.91;;;19.04;46.80
54850;BME280;47660;51.334;12.396;2023-04-19T00:41:00;101128.31;;;18.79;46.81
54850;BME280;47660;51.334;12.396;2023-04-19T00:43:28;101128.19;;;19.02;46.48
54850;BME280;47660;51.334;12.396;2023-04-19T00:45:55;101126.13;;;19.15;47.14
54850;BME280;47660;51.334;12.396;2023-04-19T00:48:21;101134.16;;;18.84;47.35
54850;BME280;47660;51.334;12.396;2023-04-19T00:50:47;101124.78;;;18.99;46.73
54850;BME280;47660;51.334;12.396;2023-04-19T00:53:12;101126.94;;;19.37;45.33
54850;BME280;47660;51.334;12.396;2023-04-19T00:55:38;101133.63;;;18.90;46.53
54850;BME280;47660;51.334;12.396;2023-04-19T00:58:07;101116.59;;;19.11;46.37
54850;BME280;47660;51.334;12.396;2023-04-19T01:00:36;101121.03;;;18.69;47.14
54850;BME280;47660;51.334;12.396;2023-04-19T01:03:01;101118.81;;;18.21;47.77
54850;BME280;47660;51.334;12.396;2023-04-19T01:05:27;101118.50;;;18.14;47.61
54850;BME280;47660;51.334;12.396;2023-04-19T01:07:53;101119.34;;;18.36;47.49
54850;BME280;47660;51.334;12.396;2023-04-19T01:10:21;101119.09;;;18.81;47.13
54850;BME280;47660;51.334;12.396;2023-04-19T01:12:46;101112.16;;;19.00;46.39
54850;BME280;47660;51.334;12.396;2023-04-19T01:15:14;101114.13;;;18.55;47.64
54850;BME280;47660;51.334;12.396;2023-04-19T01:17:42;101108.22;;;18.83;46.49
54850;BME280;47660;51.334;12.396;2023-04-19T01:20:12;101102.47;;;19.19;46.66
54850;BME280;47660;51.334;12.396;2023-04-19T01:22:40;101110.84;;;18.73;46.63
54850;BME280;47660;51.334;12.396;2023-04-19T01:25:08;101104.66;;;18.61;46.99
54850;BME280;47660;51.334;12.396;2023-04-19T01:27:36;101105.63;;;19.24;46.53
54850;BME280;47660;51.334;12.396;2023-04-19T01:30:04;101097.69;;;18.16;48.16
54850;BME280;47660;51.334;12.396;2023-04-19T01:32:30;101106.25;;;18.43;47.40
54850;BME280;47660;51.334;12.396;2023-04-19T01:34:56;101100.53;;;18.99;46.08
54850;BME280;47660;51.334;12.396;2023-04-19T01:37:21;101101.84;;;18.84;47.09
54850;BME280;47660;51.334;12.396;2023-04-19T01:39:47;101100.66;;;18.77;47.34
54850;BME280;47660;51.334;12.396;2023-04-19T01:42:12;101100.63;;;18.13;48.23
54850;BME280;47660;51.334;12.396;2023-04-19T01:44:37;101100.72;;;18.44;47.90
54850;BME280;47660;51.334;12.396;2023-04-19T01:47:03;101091.81;;;18.22;48.36
54850;BME280;47660;51.334;12.396;2023-04-19T01:49:29;101101.25;;;18.59;47.43
54850;BME280;47660;51.334;12.396;2023-04-19T01:51:55;101097.47;;;18.62;47.40
54850;BME280;47660;51.334;12.396;2023-04-19T01:54:20;101104.56;;;18.94;47.06
54850;BME280;47660;51.334;12.396;2023-04-19T01:56:48;101105.06;;;18.35;48.67
54850;BME280;47660;51.334;12.396;2023-04-19T01:59:13;101100.47;;;18.68;47.68
54850;BME280;47660;51.334;12.396;2023-04-19T02:01:39;101106.03;;;18.34;48.09
54850;BME280;47660;51.334;12.396;2023-04-19T02:04:05;101100.25;;;17.62;49.52
54850;BME280;47660;51.334;12.396;2023-04-19T02:06:31;101092.50;;;18.03;48.74
54850;BME280;47660;51.334;12.396;2023-04-19T02:08:57;101090.59;;;18.15;49.06
54850;BME280;47660;51.334;12.396;2023-04-19T02:11:22;101095.63;;;18.08;48.94
54850;BME280;47660;51.334;12.396;2023-04-19T02:13:50;101099.28;;;17.75;49.12
54850;BME280;47660;51.334;12.396;2023-04-19T02:16:16;101094.97;;;18.28;48.56
54850;BME280;47660;51.334;12.396;2023-04-19T02:18:41;101093.16;;;18.59;48.19
54850;BME280;47660;51.334;12.396;2023-04-19T02:21:08;101094.03;;;19.02;47.34
54850;BME280;47660;51.334;12.396;2023-04-19T02:23:36;101099.88;;;18.44;47.87
54850;BME280;47660;51.334;12.396;2023-04-19T02:26:04;101100.88;;;18.64;48.13
54850;BME280;47660;51.334;12.396;2023-04-19T02:28:30;101099.75;;;18.66;48.50
54850;BME280;47660;51.334;12.396;2023-04-19T02:30:56;101099.16;;;17.65;50.21
54850;BME280;47660;51.334;12.396;2023-04-19T02:33:21;101094.31;;;17.47;50.54
54850;BME280;47660;51.334;12.396;2023-04-19T02:35:50;101093.91;;;18.40;48.85
54850;BME280;47660;51.334;12.396;2023-04-19T02:38:15;101093.59;;;17.22;50.62
54850;BME280;47660;51.334;12.396;2023-04-19T02:40:41;101098.59;;;17.04;51.19
54850;BME280;47660;51.334;12.396;2023-04-19T02:43:06;101092.59;;;17.23;50.66
54850;BME280;47660;51.334;12.396;2023-04-19T02:45:32;101093.00;;;17.30;50.47
54850;BME280;47660;51.334;12.396;2023-04-19T02:47:57;101087.16;;;17.80;49.66
54850;BME280;47660;51.334;12.396;2023-04-19T02:50:24;101088.59;;;17.29;49.89
54850;BME280;47660;51.334;12.396;2023-04-19T02:52:50;101096.28;;;17.34;50.61
54850;BME280;47660;51.334;12.396;2023-04-19T02:55:15;101090.31;;;17.30;50.51
54850;BME280;47660;51.334;12.396;2023-04-19T02:57:40;101088.13;;;17.79;49.97
54850;BME280;47660;51.334;12.396;2023-04-19T03:00:06;101090.06;;;17.22;51.24
54850;BME280;47660;51.334;12.396;2023-04-19T03:02:33;101092.00;;;17.08;51.79
54850;BME280;47660;51.334;12.396;2023-04-19T03:04:58;101085.09;;;16.70;52.29
54850;BME280;47660;51.334;12.396;2023-04-19T03:07:24;101086.94;;;16.81;51.86
54850;BME280;47660;51.334;12.396;2023-04-19T03:09:50;101092.47;;;17.36;50.93
54850;BME280;47660;51.334;12.396;2023-04-19T03:12:15;101083.56;;;16.43;53.05
54850;BME280;47660;51.334;12.396;2023-04-19T03:14:40;101086.38;;;17.00;51.83
54850;BME280;47660;51.334;12.396;2023-04-19T03:17:06;101084.81;;;17.09;50.90
54850;BME280;47660;51.334;12.396;2023-04-19T03:19:34;101071.59;;;17.40;51.32
54850;BME280;47660;51.334;12.396;2023-04-19T03:21:59;101074.94;;;17.65;49.80
54850;BME280;47660;51.334;12.396;2023-04-19T03:24:31;101074.19;;;17.74;49.83
54850;BME280;47660;51.334;12.396;2023-04-19T03:26:58;101069.25;;;17.47;50.25
54850;BME280;47660;51.334;12.396;2023-04-19T03:29:24;101061.78;;;17.94;48.51
54850;BME280;47660;51.334;12.396;2023-04-19T03:31:49;101072.06;;;17.45;49.77
54850;BME280;47660;51.334;12.396;2023-04-19T03:34:17;101076.97;;;17.17;50.29
54850;BME280;47660;51.334;12.396;2023-04-19T03:36:43;101060.50;;;17.33;50.05
54850;BME280;47660;51.334;12.396;2023-04-19T03:39:08;101067.53;;;17.46;49.70
54850;BME280;47660;51.334;12.396;2023-04-19T03:41:34;101071.84;;;17.37;49.00
54850;BME280;47660;51.334;12.396;2023-04-19T03:44:02;101062.47;;;17.75;48.01
54850;BME280;47660;51.334;12.396;2023-04-19T03:46:27;101060.81;;;17.95;46.58
54850;BME280;47660;51.334;12.396;2023-04-19T03:48:58;101059.59;;;17.88;47.53
54850;BME280;47660;51.334;12.396;2023-04-19T03:51:23;101061.94;;;16.92;47.44
54850;BME280;47660;51.334;12.396;2023-04-19T03:53:49;101057.34;;;17.72;45.48
54850;BME280;47660;51.334;12.396;2023-04-19T03:56:14;101063.63;;;16.70;47.32
54850;BME280;47660;51.334;12.396;2023-04-19T03:58:39;101065.00;;;17.10;46.05
54850;BME280;47660;51.334;12.396;2023-04-19T04:01:05;101057.69;;;17.23;45.55
54850;BME280;47660;51.334;12.396;2023-04-19T04:03:32;101056.19;;;17.42;45.57
54850;BME280;47660;51.334;12.396;2023-04-19T04:05:58;101055.94;;;17.57;44.56
54850;BME280;47660;51.334;12.396;2023-04-19T04:08:23;101048.75;;;16.77;45.47
54850;BME280;47660;51.334;12.396;2023-04-19T04:10:48;101061.72;;;17.29;44.60
54850;BME280;47660;51.334;12.396;2023-04-19T04:13:20;101056.97;;;17.77;43.83
54850;BME280;47660;51.334;12.396;2023-04-19T04:15:56;101048.28;;;18.17;43.37
54850;BME280;47660;51.334;12.396;2023-04-19T04:18:21;101063.78;;;16.91;44.90
54850;BME280;47660;51.334;12.396;2023-04-19T04:20:47;101063.22;;;17.66;43.22
54850;BME280;47660;51.334;12.396;2023-04-19T04:23:15;101051.28;;;17.91;43.93
54850;BME280;47660;51.334;12.396;2023-04-19T04:25:40;101065.66;;;16.44;45.58
54850;BME280;47660;51.334;12.396;2023-04-19T04:28:10;101047.91;;;17.22;44.60
54850;BME280;47660;51.334;12.396;2023-04-19T04:30:35;101049.06;;;17.64;43.78
54850;BME280;47660;51.334;12.396;2023-04-19T04:33:04;101055.94;;;16.77;45.47
54850;BME280;47660;51.334;12.396;2023-04-19T04:35:32;101065.16;;;17.08;45.53
54850;BME280;47660;51.334;12.396;2023-04-19T04:37:57;101064.03;;;17.22;44.30
54850;BME280;47660;51.334;12.396;2023-04-19T04:40:23;101058.47;;;17.58;43.05
54850;BME280;47660;51.334;12.396;2023-04-19T04:42:49;101059.63;;;17.44;43.54
54850;BME280;47660;51.334;12.396;2023-04-19T04:45:17;101070.88;;;16.45;43.92
54850;BME280;47660;51.334;12.396;2023-04-19T04:47:44;101069.88;;;16.93;43.80
54850;BME280;47660;51.334;12.396;2023-04-19T04:50:10;101071.94;;;16.90;43.52
54850;BME280;47660;51.334;12.396;2023-04-19T04:52:40;101061.16;;;16.56;42.96
54850;BME280;47660;51.334;12.396;2023-04-19T04:55:08;101058.63;;;17.57;41.76
54850;BME280;47660;51.334;12.396;2023-04-19T04:57:36;101054.56;;;17.62;40.98
54850;BME280;47660;51.334;12.396;2023-04-19T05:00:02;101053.28;;;17.22;41.47
54850;BME280;47660;51.334;12.396;2023-04-19T05:02:29;101055.81;;;16.90;41.39
54850;BME280;47660;51.334;12.396;2023-04-19T05:04:54;101059.03;;;16.37;42.76
54850;BME280;47660;51.334;12.396;2023-04-19T05:07:22;101056.03;;;17.55;41.05
54850;BME280;47660;51.334;12.396;2023-04-19T05:09:50;101063.25;;;16.75;41.38
54850;BME280;47660;51.334;12.396;2023-04-19T05:12:16;101065.16;;;17.08;40.35
54850;BME280;47660;51.334;12.396;2023-04-19T05:14:41;101063.56;;;17.06;39.15
54850;BME280;47660;51.334;12.396;2023-04-19T05:17:06;101058.25;;;17.38;39.07
54850;BME280;47660;51.334;12.396;2023-04-19T05:19:32;101056.91;;;17.56;38.44
54850;BME280;47660;51.334;12.396;2023-04-19T05:22:00;101065.03;;;16.99;38.12
54850;BME280;47660;51.334;12.396;2023-04-19T05:24:25;101051.81;;;16.61;37.90
54850;BME280;47660;51.334;12.396;2023-04-19T05:26:53;101057.84;;;16.41;37.59
54850;BME280;47660;51.334;12.396;2023-04-19T05:29:19;101058.13;;;16.60;37.24
54850;BME280;47660;51.334;12.396;2023-04-19T05:31:44;101062.94;;;16.32;37.77
54850;BME280;47660;51.334;12.396;2023-04-19T05:34:13;101056.13;;;17.10;36.59
54850;BME280;47660;51.334;12.396;2023-04-19T05:36:38;101056.44;;;16.93;37.16
54850;BME280;47660;51.334;12.396;2023-04-19T05:39:04;101056.19;;;16.15;37.12
54850;BME280;47660;51.334;12.396;2023-04-19T05:41:33;101056.53;;;17.49;35.89
54850;BME280;47660;51.334;12.396;2023-04-19T05:44:07;101056.78;;;16.55;36.50
54850;BME280;47660;51.334;12.396;2023-04-19T05:46:32;101060.03;;;16.36;37.75
54850;BME280;47660;51.334;12.396;2023-04-19T05:48:57;101057.47;;;15.24;38.48
54850;BME280;47660;51.334;12.396;2023-04-19T05:51:23;101051.59;;;16.40;36.91
54850;BME280;47660;51.334;12.396;2023-04-19T05:53:48;101044.06;;;16.45;37.46
54850;BME280;47660;51.334;12.396;2023-04-19T05:56:14;101056.00;;;16.41;36.68
54850;BME280;47660;51.334;12.396;2023-04-19T05:58:39;101052.09;;;16.45;36.50
54850;BME280;47660;51.334;12.396;2023-04-19T06:01:07;101050.28;;;16.46;37.20
54850;BME280;47660;51.334;12.396;2023-04-19T06:03:32;101056.59;;;17.03;36.54
54850;BME280;47660;51.334;12.396;2023-04-19T06:06:00;101052.31;;;17.35;35.85
54850;BME280;47660;51.334;12.396;2023-04-19T06:08:28;101054.09;;;15.46;37.52
54850;BME280;47660;51.334;12.396;2023-04-19T06:10:53;101049.53;;;16.32;37.04
54850;BME280;47660;51.334;12.396;2023-04-19T06:13:20;101046.34;;;16.86;36.83
54850;BME280;47660;51.334;12.396;2023-04-19T06:15:46;101043.16;;;17.15;36.15
54850;BME280;47660;51.334;12.396;2023-04-19T06:18:11;101036.91;;;16.80;36.38
54850;BME280;47660;51.334;12.396;2023-04-19T06:20:37;101046.22;;;16.99;35.93
54850;BME280;47660;51.334;12.396;2023-04-19T06:23:04;101045.19;;;17.45;35.26
54850;BME280;47660;51.334;12.396;2023-04-19T06:25:29;101053.94;;;16.45;36.78
54850;BME280;47660;51.334;12.396;2023-04-19T06:27:55;101050.56;;;16.77;36.56
54850;BME280;47660;51.334;12.396;2023-04-19T06:30:23;101044.28;;;17.01;36.72
54850;BME280;47660;51.334;12.396;2023-04-19T06:32:51;101047.56;;;17.16;36.43
54850;BME280;47660;51.334;12.396;2023-04-19T06:35:17;101050.09;;;16.60;36.96
54850;BME280;47660;51.334;12.396;2023-04-19T06:37:45;101046.06;;;16.66;37.32
54850;BME280;47660;51.334;12.396;2023-04-19T06:40:10;101051.06;;;16.71;37.26
54850;BME280;47660;51.334;12.396;2023-04-19T06:42:36;101059.69;;;16.52;37.35
54850;BME280;47660;51.334;12.396;2023-04-19T06:45:03;101052.31;;;17.23;36.70
54850;BME280;47660;51.334;12.396;2023-04-19T06:47:29;101047.22;;;16.98;36.25
54850;BME280;47660;51.334;12.396;2023-04-19T06:49:55;101048.38;;;16.59;36.79
54850;BME280;47660;51.334;12.396;2023-04-19T06:52:21;101039.69;;;17.47;35.81
54850;BME280;47660;51.334;12.396;2023-04-19T06:54:49;101036.03;;;17.36;36.03
54850;BME280;47660;51.334;12.396;2023-04-19T06:57:17;101040.06;;;17.54;36.44
54850;BME280;47660;51.334;12.396;2023-04-19T06:59:43;101053.09;;;16.56;36.69
54850;BME280;47660;51.334;12.396;2023-04-19T07:02:09;101036.69;;;16.95;36.66
54850;BME280;47660;51.334;12.396;2023-04-19T07:04:34;101032.41;;;18.14;35.07
54850;BME280;47660;51.334;12.396;2023-04-19T07:07:00;101030.81;;;17.79;35.41
54850;BME280;47660;51.334;12.396;2023-04-19T07:09:26;101034.09;;;16.93;36.13
54850;BME280;47660;51.334;12.396;2023-04-19T07:11:51;101045.94;;;16.90;36.20
54850;BME280;47660;51.334;12.396;2023-04-19T07:14:17;101021.06;;;17.66;35.77
54850;BME280;47660;51.334;12.396;2023-04-19T07:16:46;101036.22;;;17.01;36.13
54850;BME280;47660;51.334;12.396;2023-04-19T07:19:12;101024.69;;;17.44;36.11
54850;BME280;47660;51.334;12.396;2023-04-19T07:21:38;101016.03;;;17.73;35.49
54850;BME280;47660;51.334;12.396;2023-04-19T07:24:06;101026.78;;;18.69;35.39
54850;BME280;47660;51.334;12.396;2023-04-19T07:26:34;101015.91;;;18.50;35.19
54850;BME280;47660;51.334;12.396;2023-04-19T07:29:07;101013.78;;;17.90;35.02
54850;BME280;47660;51.334;12.396;2023-04-19T07:31:53;101011.44;;;18.39;34.42
54850;BME280;47660;51.334;12.396;2023-04-19T07:34:21;101005.25;;;17.85;34.94
54850;BME280;47660;51.334;12.396;2023-04-19T07:36:47;101018.84;;;16.59;36.62
54850;BME280;47660;51.334;12.396;2023-04-19T07:39:12;101009.06;;;17.27;35.19
54850;BME280;47660;51.334;12.396;2023-04-19T07:41:40;101005.88;;;18.09;34.69
54850;BME280;47660;51.334;12.396;2023-04-19T07:44:06;101001.31;;;17.89;34.34
54850;BME280;47660;51.334;12.396;2023-04-19T07:46:31;101001.88;;;18.25;34.10
54850;BME280;47660;51.334;12.396;2023-04-19T07:48:57;101000.91;;;18.57;33.49
54850;BME280;47660;51.334;12.396;2023-04-19T07:51:24;101003.75;;;18.86;33.57
54850;BME280;47660;51.334;12.396;2023-04-19T07:53:50;101002.34;;;17.97;33.49
54850;BME280;47660;51.334;12.396;2023-04-19T07:56:16;101014.03;;;17.43;33.62
54850;BME280;47660;51.334;12.396;2023-04-19T07:58:41;100999.78;;;18.50;32.98
54850;BME280;47660;51.334;12.396;2023-04-19T08:01:07;101003.59;;;17.93;34.13
54850;BME280;47660;51.334;12.396;2023-04-19T08:03:33;100998.69;;;18.93;33.35
54850;BME280;47660;51.334;12.396;2023-04-19T08:06:03;101009.38;;;18.74;34.20
54850;BME280;47660;51.334;12.396;2023-04-19T08:08:32;101016.75;;;18.50;34.63
54850;BME280;47660;51.334;12.396;2023-04-19T08:10:57;101009.47;;;17.66;34.89
54850;BME280;47660;51.334;12.396;2023-04-19T08:13:23;100995.56;;;18.15;34.35
54850;BME280;47660;51.334;12.396;2023-04-19T08:15:48;101007.69;;;18.51;34.73
54850;BME280;47660;51.334;12.396;2023-04-19T08:18:14;100999.91;;;18.27;34.47
54850;BME280;47660;51.334;12.396;2023-04-19T08:20:41;100984.50;;;18.60;34.46
54850;BME280;47660;51.334;12.396;2023-04-19T08:23:10;100990.44;;;19.26;33.75
54850;BME280;47660;51.334;12.396;2023-04-19T08:25:36;100985.41;;;18.39;34.06
54850;BME280;47660;51.334;12.396;2023-04-19T08:28:05;100978.22;;;18.81;34.44
54850;BME280;47660;51.334;12.396;2023-04-19T08:30:31;100983.63;;;18.91;34.62
54850;BME280;47660;51.334;12.396;2023-04-19T08:32:56;100986.56;;;18.78;34.99
54850;BME280;47660;51.334;12.396;2023-04-19T08:35:22;100977.75;;;19.07;35.02
54850;BME280;47660;51.334;12.396;2023-04-19T08:37:47;100975.03;;;19.67;33.91
54850;BME280;47660;51.334;12.396;2023-04-19T08:40:14;100970.41;;;18.78;35.01
54850;BME280;47660;51.334;12.396;2023-04-19T08:42:41;100966.06;;;19.57;33.50
54850;BME280;47660;51.334;12.396;2023-04-19T08:45:07;100968.50;;;18.59;34.88
54850;BME280;47660;51.334;12.396;2023-04-19T08:47:33;100960.69;;;19.47;33.23
54850;BME280;47660;51.334;12.396;2023-04-19T08:50:03;100961.59;;;19.07;34.68
54850;BME280;47660;51.334;12.396;2023-04-19T08:52:29;100952.69;;;20.14;32.82
54850;BME280;47660;51.334;12.396;2023-04-19T08:54:56;100945.69;;;20.31;32.74
54850;BME280;47660;51.334;12.396;2023-04-19T08:57:22;100945.59;;;20.13;32.79
54850;BME280;47660;51.334;12.396;2023-04-19T08:59:50;100942.84;;;20.23;32.37
54850;BME280;47660;51.334;12.396;2023-04-19T09:02:20;100938.69;;;19.42;33.07
54850;BME280;47660;51.334;12.396;2023-04-19T09:04:49;100936.16;;;20.27;33.38
54850;BME280;47660;51.334;12.396;2023-04-19T09:07:24;100929.06;;;20.64;33.30
54850;BME280;47660;51.334;12.396;2023-04-19T09:10:06;100930.72;;;19.40;33.82
54850;BME280;47660;51.334;12.396;2023-04-19T09:12:35;100922.34;;;20.78;32.43
54850;BME280;47660;51.334;12.396;2023-04-19T09:15:02;100926.91;;;20.77;31.79
54850;BME280;47660;51.334;12.396;2023-04-19T09:17:33;100925.66;;;20.62;31.62
54850;BME280;47660;51.334;12.396;2023-04-19T09:20:01;100915.78;;;20.15;31.48
54850;BME280;47660;51.334;12.396;2023-04-19T09:22:26;100917.16;;;21.31;30.47
54850;BME280;47660;51.334;12.396;2023-04-19T09:24:54;100908.84;;;21.42;29.65
54850;BME280;47660;51.334;12.396;2023-04-19T09:30:02;100908.72;;;20.98;31.14
54850;BME280;47660;51.334;12.396;2023-04-19T09:32:45;100899.00;;;20.87;31.91
54850;BME280;47660;51.334;12.396;2023-04-19T09:35:11;100894.53;;;20.68;30.27
54850;BME280;47660;51.334;12.396;2023-04-19T09:37:39;100896.03;;;20.80;30.17
54850;BME280;47660;51.334;12.396;2023-04-19T09:40:24;100887.91;;;21.44;29.41
54850;BME280;47660;51.334;12.396;2023-04-19T09:42:53;100879.22;;;21.59;29.75
54850;BME280;47660;51.334;12.396;2023-04-19T09:45:18;100890.00;;;20.30;30.34
54850;BME280;47660;51.334;12.396;2023-04-19T09:48:01;100870.78;;;21.80;29.04
54850;BME280;47660;51.334;12.396;2023-04-19T09:50:29;100879.53;;;21.01;30.03
54850;BME280;47660;51.334;12.396;2023-04-19T09:52:56;100870.50;;;21.29;29.37
54850;BME280;47660;51.334;12.396;2023-04-19T09:55:22;100870.03;;;20.97;28.86
54850;BME280;47660;51.334;12.396;2023-04-19T09:57:48;100862.03;;;21.05;29.03
54850;BME280;47660;51.334;12.396;2023-04-19T10:00:13;100869.59;;;20.84;29.64
54850;BME280;47660;51.334;12.396;2023-04-19T10:02:40;100864.31;;;21.00;29.27
54850;BME280;47660;51.334;12.396;2023-04-19T10:05:07;100857.84;;;21.47;30.00
54850;BME280;47660;51.334;12.396;2023-04-19T10:07:35;100857.13;;;21.63;30.98
54850;BME280;47660;51.334;12.396;2023-04-19T10:10:01;100856.78;;;20.76;29.46
54850;BME280;47660;51.334;12.396;2023-04-19T10:12:30;100857.16;;;21.09;29.51
54850;BME280;47660;51.334;12.396;2023-04-19T10:15:10;100841.41;;;21.04;29.54
54850;BME280;47660;51.334;12.396;2023-04-19T10:17:40;100839.69;;;22.10;28.54
54850;BME280;47660;51.334;12.396;2023-04-19T10:20:09;100832.28;;;21.42;29.08
54850;BME280;47660;51.334;12.396;2023-04-19T10:22:37;100842.03;;;21.16;29.90
54850;BME280;47660;51.334;12.396;2023-04-19T10:25:07;100821.97;;;21.63;29.06
54850;BME280;47660;51.334;12.396;2023-04-19T10:27:34;100825.63;;;21.36;29.33
54850;BME280;47660;51.334;12.396;2023-04-19T10:30:01;100831.31;;;20.32;29.75
54850;BME280;47660;51.334;12.396;2023-04-19T10:32:41;100833.72;;;22.41;28.82
54850;BME280;47660;51.334;12.396;2023-04-19T10:35:07;100834.94;;;20.69;29.27
54850;BME280;47660;51.334;12.396;2023-04-19T10:37:39;100821.72;;;21.30;29.34
54850;BME280;47660;51.334;12.396;2023-04-19T10:40:08;100817.06;;;21.41;29.95
54850;BME280;47660;51.334;12.396;2023-04-19T10:45:35;100805.22;;;20.69;29.43
54850;BME280;47660;51.334;12.396;2023-04-19T10:48:04;100813.88;;;21.45;29.54
54850;BME280;47660;51.334;12.396;2023-04-19T10:50:29;100798.94;;;22.63;27.84
54850;BME280;47660;51.334;12.396;2023-04-19T10:52:57;100800.63;;;22.21;28.09
54850;BME280;47660;51.334;12.396;2023-04-19T10:55:49;100798.25;;;22.18;28.97
54850;BME280;47660;51.334;12.396;2023-04-19T10:58:17;100801.66;;;20.97;29.65
54850;BME280;47660;51.334;12.396;2023-04-19T11:00:45;100797.53;;;21.11;29.21
54850;BME280;47660;51.334;12.396;2023-04-19T11:06:21;100792.50;;;21.34;29.75
54850;BME280;47660;51.334;12.396;2023-04-19T11:08:51;100783.44;;;20.99;29.65
54850;BME280;47660;51.334;12.396;2023-04-19T11:11:17;100774.06;;;21.82;28.88
54850;BME280;47660;51.334;12.396;2023-04-19T11:13:43;100775.56;;;20.41;30.00
54850;BME280;47660;51.334;12.396;2023-04-19T11:16:11;100764.41;;;21.08;29.44
54850;BME280;47660;51.334;12.396;2023-04-19T11:18:39;100766.88;;;21.99;29.52
54850;BME280;47660;51.334;12.396;2023-04-19T11:21:12;100760.63;;;22.07;29.10
54850;BME280;47660;51.334;12.396;2023-04-19T11:23:38;100759.41;;;21.40;29.09
54850;BME280;47660;51.334;12.396;2023-04-19T11:26:03;100750.09;;;21.95;28.63
54850;BME280;47660;51.334;12.396;2023-04-19T11:28:34;100753.41;;;22.92;27.84
54850;BME280;47660;51.334;12.396;2023-04-19T11:30:59;100758.78;;;20.19;30.14
54850;BME280;47660;51.334;12.396;2023-04-19T11:33:25;100760.91;;;21.34;29.34
54850;BME280;47660;51.334;12.396;2023-04-19T11:35:53;100760.59;;;20.93;29.58
54850;BME280;47660;51.334;12.396;2023-04-19T11:38:21;100750.69;;;20.66;29.35
54850;BME280;47660;51.334;12.396;2023-04-19T11:40:57;100741.78;;;22.40;28.47
54850;BME280;47660;51.334;12.396;2023-04-19T11:43:23;100738.59;;;23.61;27.60
54850;BME280;47660;51.334;12.396;2023-04-19T11:45:53;100734.00;;;23.69;27.55
54850;BME280;47660;51.334;12.396;2023-04-19T11:48:18;100738.69;;;22.94;28.15
54850;BME280;47660;51.334;12.396;2023-04-19T11:50:49;100739.00;;;23.33;27.33
54850;BME280;47660;51.334;12.396;2023-04-19T11:53:17;100734.00;;;22.29;28.58
54850;BME280;47660;51.334;12.396;2023-04-19T11:55:55;100725.44;;;22.50;28.34
54850;BME280;47660;51.334;12.396;2023-04-19T11:58:33;100728.59;;;21.86;29.62
54850;BME280;47660;51.334;12.396;2023-04-19T12:03:46;100719.50;;;21.34;30.13
54850;BME280;47660;51.334;12.396;2023-04-19T12:06:17;100728.97;;;21.12;30.21
54850;BME280;47660;51.334;12.396;2023-04-19T12:08:48;100726.50;;;21.00;30.30
54850;BME280;47660;51.334;12.396;2023-04-19T12:11:15;100724.59;;;21.63;29.14
54850;BME280;47660;51.334;12.396;2023-04-19T12:13:41;100719.84;;;23.09;28.13
54850;BME280;47660;51.334;12.396;2023-04-19T12:16:09;100717.00;;;22.10;28.57
54850;BME280;47660;51.334;12.396;2023-04-19T12:18:47;100713.56;;;23.50;27.56
54850;BME280;47660;51.334;12.396;2023-04-19T12:21:29;100714.19;;;22.28;28.36
54850;BME280;47660;51.334;12.396;2023-04-19T12:24:02;100727.28;;;21.11;30.11
54850;BME280;47660;51.334;12.396;2023-04-19T12:26:31;100741.91;;;20.36;32.01
54850;BME280;47660;51.334;12.396;2023-04-19T12:29:00;100751.22;;;20.23;35.71
54850;BME280;47660;51.334;12.396;2023-04-19T12:31:30;100735.63;;;20.63;35.37
54850;BME280;47660;51.334;12.396;2023-04-19T12:33:59;100727.16;;;20.12;35.23
54850;BME280;47660;51.334;12.396;2023-04-19T12:36:24;100725.72;;;20.72;35.65
54850;BME280;47660;51.334;12.396;2023-04-19T12:38:49;100717.47;;;21.36;34.16
54850;BME280;47660;51.334;12.396;2023-04-19T12:41:18;100715.22;;;21.84;33.83
54850;BME280;47660;51.334;12.396;2023-04-19T12:43:43;100708.72;;;21.42;33.55
54850;BME280;47660;51.334;12.396;2023-04-19T12:46:11;100706.84;;;21.34;32.81
54850;BME280;47660;51.334;12.396;2023-04-19T12:48:39;100692.91;;;23.24;30.38
54850;BME280;47660;51.334;12.396;2023-04-19T12:51:07;100687.03;;;23.61;30.05
54850;BME280;47660;51.334;12.396;2023-04-19T12:53:35;100681.47;;;24.02;29.68